Latest Weather Observations for Hobart Airport

IDT60801

Issued at 10:01 am EST Wednesday 22 September 2021 (issued every 10 minutes, with the page automatically refreshed every 10 minutes)

About weather observations | Map of weather stations | Latest weather observations for TAS | Other Formats
Station Details ID: 094008 Name: HOBART AIRPORT Lat: -42.83 Lon: 147.50 Height: 4.0 m
Data from the previous 72 hours. | See also: Recent months at Hobart Airport
Date/Time
EST
Temp
°C
App
Temp
°C
Dew
Point
°C
Rel
Hum
%
Delta-T
°C
Wind Press
QNH
hPa
Press
MSL
hPa
Rain since
9am
mm
Dir  Spd
km/h
Gust
km/h
Spd
kts
Gust
kts
22/09:30am 17.0 12.0 6.5 50 5.2 NNW 22 33 12 18 1015.7 1015.7 0.0
22/09:00am 16.7 11.3 6.5 51 5.0 NW 24 33 13 18 1015.7 1015.7 0.2
22/08:30am 16.0 10.5 7.5 57 4.2 NNW 26 37 14 20 1015.7 1015.7 0.2
22/08:00am 15.1 9.8 6.9 58 4.0 NNW 24 43 13 23 1015.6 1015.6 0.2
22/07:30am 14.9 9.7 7.2 60 3.8 NNW 24 33 13 18 1015.5 1015.5 0.2
22/07:00am 14.0 9.5 7.1 63 3.4 NNW 20 32 11 17 1015.8 1015.8 0.2
22/06:30am 13.6 7.6 6.9 64 3.2 NNW 28 37 15 20 1015.5 1015.5 0.2
22/06:00am 12.9 8.4 6.9 67 2.9 NW 20 35 11 19 1015.4 1015.4 0.2
22/05:30am 13.0 7.0 7.2 68 2.8 NNW 28 37 15 20 1015.3 1015.3 0.2
22/05:00am 12.6 7.0 7.1 69 2.7 NNW 26 39 14 21 1015.4 1015.4 0.2
22/04:30am 12.7 7.1 7.0 68 2.7 NNW 26 35 14 19 1015.5 1015.5 0.2
22/04:00am 12.5 5.7 6.8 68 2.7 NW 32 41 17 22 1015.5 1015.5 0.2
22/03:30am 12.1 6.8 6.8 70 2.5 NW 24 33 13 18 1015.5 1015.5 0.2
22/03:00am 12.4 6.7 6.7 68 2.7 NNW 26 37 14 20 1015.8 1015.8 0.2
22/02:30am 11.8 5.7 6.7 71 2.4 NW 28 37 15 20 1016.0 1016.0 0.2
22/02:00am 11.7 5.2 6.4 70 2.5 NW 30 37 16 20 1016.2 1016.2 0.2
22/01:30am 11.5 5.8 6.6 72 2.3 NNW 26 35 14 19 1016.5 1016.5 0.2
22/01:00am 11.8 6.0 6.3 69 2.6 NW 26 35 14 19 1016.7 1016.7 0.2
22/12:30am 11.8 5.6 6.1 68 2.7 NW 28 35 15 19 1016.9 1016.9 0.2
22/12:00am 11.6 7.0 6.3 70 2.5 NNW 20 30 11 16 1016.8 1016.8 0.2
 
Date/Time
EST
Temp
°C
App
Temp
°C
Dew
Point
°C
Rel
Hum
%
Delta-T
°C
Wind Press
QNH
hPa
Press
MSL
hPa
Rain since
9am
mm
Dir  Spd
km/h
Gust
km/h
Spd
kts
Gust
kts
21/11:30pm 11.8 6.3 6.1 68 2.7 NW 24 32 13 17 1016.9 1016.9 0.2
21/11:00pm 11.9 7.1 5.5 65 3.0 WNW 20 26 11 14 1017.1 1017.1 0.2
21/10:30pm 12.0 7.4 5.6 65 3.0 WNW 19 30 10 16 1017.1 1017.1 0.2
21/10:00pm 11.7 7.1 5.6 66 2.8 NW 19 28 10 15 1016.9 1016.9 0.2
21/09:30pm 11.9 6.8 5.8 66 2.8 NW 22 32 12 17 1016.9 1016.9 0.2
21/09:00pm 12.0 6.4 5.4 64 3.1 NW 24 32 13 17 1017.3 1017.3 0.2
21/08:30pm 12.2 6.6 5.4 63 3.2 NW 24 33 13 18 1017.2 1017.2 0.2
21/08:00pm 12.7 7.4 4.9 59 3.6 NW 22 30 12 16 1017.1 1017.1 0.2
21/07:30pm 12.7 6.0 5.4 61 3.4 NW 30 37 16 20 1016.6 1016.6 0.2
21/07:15pm 12.6 5.8 5.3 61 3.4 NW 30 48 16 26 1016.6 1016.6 0.2
21/07:00pm 12.8 5.6 5.2 60 3.5 NW 32 44 17 24 1016.5 1016.5 0.2
21/06:49pm 12.7 5.9 5.1 60 3.5 NW 30 48 16 26 1016.4 1016.4 0.2
21/06:30pm 12.6 5.4 5.1 60 3.5 NW 32 43 17 23 1016.0 1016.0 0.2
21/06:13pm 12.9 5.5 4.8 58 3.7 NW 33 52 18 28 1015.9 1015.9 0.2
21/06:00pm 12.8 5.9 4.8 58 3.7 NW 30 41 16 22 1016.0 1016.0 0.2
21/05:30pm 13.0 6.1 4.7 57 3.8 NW 30 39 16 21 1015.8 1015.8 0.2
21/05:00pm 13.2 6.7 4.9 57 3.8 NW 28 37 15 20 1015.6 1015.6 0.2
21/04:30pm 13.0 6.3 3.7 53 4.2 NW 28 41 15 22 1015.8 1015.8 0.2
21/04:00pm 12.8 5.3 3.7 54 4.1 WNW 32 39 17 21 1015.8 1015.8 0.2
21/03:46pm 13.5 6.4 3.6 51 4.5 WNW 30 48 16 26 1015.6 1015.6 0.2
21/03:30pm 13.8 6.1 3.6 50 4.6 WNW 33 44 18 24 1015.4 1015.4 0.2
21/03:01pm 13.1 5.9 3.2 51 4.4 WNW 30 48 16 26 1015.6 1015.6 0.2
21/03:00pm 13.2 5.7 3.6 52 4.3 WNW 32 48 17 26 1015.7 1015.7 0.2
21/02:57pm 13.4 6.3 3.5 51 4.4 NW 30 48 16 26 1015.7 1015.7 0.2
21/02:30pm 14.0 6.0 3.8 50 4.6 NW 35 46 19 25 1015.4 1015.4 0.2
21/02:00pm 13.2 5.6 3.0 50 4.5 NW 32 43 17 23 1015.6 1015.6 0.2
21/01:30pm 13.0 5.7 2.6 49 4.6 WNW 30 41 16 22 1016.0 1016.0 0.2
21/01:10pm 12.8 5.2 2.9 51 4.4 NW 32 52 17 28 1016.4 1016.4 0.2
21/01:00pm 13.3 5.9 4.2 54 4.1 NW 32 44 17 24 1016.4 1016.4 0.2
21/12:30pm 11.8 5.2 2.0 51 4.2 WNW 26 35 14 19 1016.8 1016.8 0.2
21/12:00pm 11.0 3.8 1.0 50 4.1 NW 28 37 15 20 1017.3 1017.3 0.2
21/11:30am 10.4 4.3 0.2 49 4.1 WNW 22 30 12 16 1017.6 1017.6 0.2
21/11:00am 10.2 3.8 1.1 53 3.8 WNW 24 33 13 18 1017.7 1017.7 0.0
21/10:30am 10.4 4.8 1.0 52 3.9 WNW 20 32 11 17 1017.7 1017.7 0.0
21/10:00am 9.7 4.1 0.1 51 3.8 WNW 19 30 10 16 1017.4 1017.4 0.0
21/09:30am 9.5 3.8 -0.4 50 3.9 W 19 26 10 14 1017.3 1017.3 0.0
21/09:00am 9.8 4.2 -0.1 50 4.0 W 19 28 10 15 1017.5 1017.5 0.2
21/08:30am 9.3 3.8 0.5 54 3.6 WNW 19 28 10 15 1017.0 1017.0 0.2
21/08:00am 8.5 2.7 0.0 55 3.4 WSW 20 37 11 20 1017.0 1017.0 0.2
21/07:30am 7.8 2.0 -0.2 57 3.1 WSW 20 32 11 17 1017.1 1017.1 0.2
21/07:00am 7.2 2.8 0.2 61 2.7 W 13 20 7 11 1016.5 1016.5 0.2
21/06:30am 6.2 1.3 -0.5 62 2.6 WSW 15 26 8 14 1015.6 1015.6 0.2
21/06:00am 6.2 1.2 -1.0 60 2.7 SW 15 22 8 12 1015.2 1015.2 0.2
21/05:30am 6.7 0.8 -1.0 58 2.9 WSW 20 26 11 14 1015.0 1015.0 0.2
21/05:00am 6.8 0.2 -0.6 59 2.8 WSW 24 35 13 19 1015.0 1015.0 0.2
21/04:30am 6.7 0.1 -0.1 62 2.6 WSW 24 32 13 17 1014.7 1014.7 0.2
21/04:00am 7.0 -0.3 0.0 61 2.7 WSW 28 37 15 20 1014.1 1014.1 0.2
21/03:30am 7.0 0.2 0.9 65 2.4 WSW 26 37 14 20 1013.7 1013.7 0.2
21/03:00am 6.8 -0.4 0.9 66 2.3 WSW 28 37 15 20 1013.1 1013.1 0.2
21/02:30am 6.7 1.1 1.0 67 2.3 SW 20 33 11 18 1012.8 1012.8 0.2
21/02:00am 6.7 0.7 1.0 67 2.3 SW 22 33 12 18 1012.6 1012.6 0.2
21/01:30am 7.3 0.9 1.0 64 2.5 WSW 24 35 13 19 1012.4 1012.4 0.2
21/01:00am 7.3 1.3 1.0 64 2.5 WSW 22 33 12 18 1012.0 1012.0 0.2
21/12:30am 7.0 2.0 1.1 66 2.4 WSW 17 24 9 13 1011.5 1011.5 0.2
21/12:00am 7.3 1.8 1.8 68 2.2 WSW 20 30 11 16 1011.1 1011.1 0.2
 
Date/Time
EST
Temp
°C
App
Temp
°C
Dew
Point
°C
Rel
Hum
%
Delta-T
°C
Wind Press
QNH
hPa
Press
MSL
hPa
Rain since
9am
mm
Dir  Spd
km/h
Gust
km/h
Spd
kts
Gust
kts
20/11:30pm 7.3 0.7 1.8 68 2.2 WSW 26 41 14 22 1010.4 1010.4 0.2
20/11:00pm 7.2 1.9 1.7 68 2.2 WSW 19 32 10 17 1010.1 1010.1 0.2
20/10:30pm 7.2 1.7 2.1 70 2.1 SW 20 32 11 17 1009.9 1009.9 0.2
20/10:00pm 7.5 1.7 2.2 69 2.2 WSW 22 35 12 19 1009.2 1009.2 0.2
20/09:30pm 7.3 2.5 2.6 72 2.0 SW 17 26 9 14 1008.5 1008.5 0.2
20/09:00pm 7.8 0.9 2.5 69 2.2 SW 28 41 15 22 1007.8 1007.8 0.2
20/08:30pm 8.1 1.1 2.1 66 2.5 SW 28 37 15 20 1007.2 1007.2 0.2
20/08:00pm 8.2 1.2 1.8 64 2.6 WSW 28 39 15 21 1006.4 1006.4 0.2
20/07:30pm 8.6 1.6 1.7 62 2.8 WSW 28 37 15 20 1005.6 1005.6 0.2
20/07:00pm 8.7 2.1 1.8 62 2.9 WSW 26 37 14 20 1004.9 1004.9 0.2
20/06:30pm 8.8 3.3 1.7 61 2.9 WSW 20 32 11 17 1004.2 1004.2 0.2
20/06:00pm 9.1 4.1 1.3 58 3.2 W 17 28 9 15 1003.6 1003.6 0.2
20/05:30pm 9.7 3.8 1.8 58 3.3 W 22 30 12 16 1002.4 1002.4 0.2
20/05:00pm 10.1 3.9 2.0 57 3.4 WNW 24 35 13 19 1002.0 1002.0 0.2
20/04:30pm 10.8 3.9 2.6 57 3.5 NW 28 39 15 21 1000.9 1000.9 0.2
20/04:00pm 10.6 4.4 2.2 56 3.6 W 24 35 13 19 1000.7 1000.7 0.2
20/03:30pm 10.8 3.4 1.6 53 3.9 WNW 30 41 16 22 999.7 999.7 0.2
20/03:03pm 11.0 2.6 1.5 52 4.0 WNW 35 54 19 29 999.1 999.1 0.2
20/03:00pm 11.2 3.3 2.2 54 3.9 WNW 33 41 18 22 999.0 999.0 0.2
20/02:30pm 10.7 3.2 1.5 53 3.9 WNW 30 46 16 25 999.0 999.0 0.2
20/02:01pm 11.1 3.4 2.4 55 3.7 WNW 32 52 17 28 998.7 998.7 0.2
20/02:00pm 11.3 3.1 2.9 56 3.7 WNW 35 52 19 28 998.8 998.8 0.2
20/01:30pm 11.4 3.6 1.9 52 4.0 WNW 32 52 17 28 998.3 998.3 0.2
20/01:00pm 11.3 3.6 3.6 59 3.4 WNW 33 56 18 30 998.5 998.5 0.2
20/12:59pm 11.0 3.3 3.3 59 3.4 WNW 33 52 18 28 998.4 998.4 0.2
20/12:30pm 9.0 1.3 3.2 67 2.5 W 33 44 18 24 998.5 998.5 0.2
20/12:26pm 9.1 1.0 3.5 68 2.4 WNW 35 48 19 26 998.5 998.5 0.2
20/12:20pm 8.9 0.7 2.7 65 2.6 WNW 35 48 19 26 998.6 998.6 0.2
20/12:00pm 11.5 2.2 0.6 47 4.5 WNW 39 54 21 29 998.2 998.2 0.0
20/11:53am 11.4 3.2 0.2 46 4.6 W 33 52 18 28 998.0 998.0 0.0
20/11:30am 11.5 3.5 1.5 50 4.2 WNW 33 44 18 24 998.6 998.6 0.0
20/11:00am 10.0 3.2 1.1 54 3.7 W 26 35 14 19 998.6 998.6 0.0
20/10:30am 10.5 4.0 2.8 59 3.3 WNW 26 37 14 20 998.7 998.7 0.0
20/10:00am 10.3 3.9 3.3 62 3.1 WNW 26 37 14 20 998.5 998.5 0.0
20/09:30am 9.4 1.9 3.2 65 2.7 WNW 32 41 17 22 998.1 998.1 0.0
20/09:00am 9.1 1.5 3.9 70 2.3 WNW 33 50 18 27 997.6 997.6 0.6
20/08:30am 9.3 1.5 3.1 65 2.7 WNW 33 50 18 27 997.3 997.3 0.6
20/08:29am 9.2 1.4 2.8 64 2.7 WNW 33 50 18 27 997.3 997.3 0.6
20/08:00am 9.0 3.1 4.0 71 2.2 NW 24 32 13 17 997.0 997.1 0.6
20/07:30am 8.1 1.7 3.4 72 2.0 WNW 26 35 14 19 996.8 996.9 0.6
20/07:00am 7.7 2.1 3.4 74 1.8 NW 22 32 12 17 996.3 996.4 0.6
20/06:30am 7.3 2.1 3.5 77 1.6 NW 20 30 11 16 996.3 996.4 0.6
20/06:00am 7.5 2.3 3.6 76 1.7 NNW 20 33 11 18 995.8 995.9 0.6
20/05:30am 7.1 3.6 3.3 77 1.6 NW 11 15 6 8 996.2 996.3 0.6
20/05:00am 7.5 3.0 2.4 70 2.1 NW 15 20 8 11 996.3 996.4 0.2
20/04:30am 7.8 2.6 2.5 69 2.2 NNW 19 28 10 15 996.3 996.4 0.2
20/04:00am 7.7 2.3 2.2 68 2.3 NNW 20 32 11 17 996.2 996.3 0.2
20/03:30am 8.5 2.3 2.3 65 2.6 NNW 24 35 13 19 996.4 996.5 0.2
20/03:00am 8.5 1.5 2.1 64 2.7 NNW 28 46 15 25 996.6 996.7 0.2
20/02:58am 8.5 1.5 2.1 64 2.7 NNW 28 46 15 25 996.5 996.6 0.2
20/02:30am 8.6 2.8 2.4 65 2.6 NNW 22 37 12 20 996.8 996.9 0.2
20/02:00am 8.6 2.4 2.0 63 2.8 NNW 24 48 13 26 997.1 997.2 0.2
20/01:30am 8.8 2.2 2.2 63 2.8 NNW 26 35 14 19 997.6 997.6 0.2
20/01:00am 8.8 2.2 1.9 62 2.9 NNW 26 37 14 20 997.9 997.9 0.2
20/12:30am 8.9 1.2 2.3 63 2.8 NW 32 43 17 23 998.2 998.2 0.2
20/12:01am 9.5 1.8 2.4 61 3.0 NW 32 50 17 27 998.4 998.4 0.2
20/12:00am 9.4 1.7 2.3 61 3.0 NW 32 44 17 24 998.4 998.4 0.2
 
Date/Time
EST
Temp
°C
App
Temp
°C
Dew
Point
°C
Rel
Hum
%
Delta-T
°C
Wind Press
QNH
hPa
Press
MSL
hPa
Rain since
9am
mm
Dir  Spd
km/h
Gust
km/h
Spd
kts
Gust
kts
19/11:31pm 9.6 2.2 2.0 59 3.2 NNW 30 48 16 26 998.6 998.6 0.2
19/11:30pm 9.6 2.2 1.8 58 3.3 NNW 30 41 16 22 998.6 998.6 0.2
19/11:05pm 9.5 2.5 1.9 59 3.2 NW 28 48 15 26 998.8 998.8 0.2
19/11:00pm 9.6 3.9 2.7 62 3.0 NNW 22 43 12 23 998.9 998.9 0.2
19/10:30pm 9.2 3.8 2.3 62 2.9 NW 20 33 11 18 999.3 999.3 0.2
19/10:00pm 9.2 4.3 2.1 61 3.0 NNW 17 28 9 15 999.3 999.3 0.2
19/09:30pm 9.2 3.9 1.9 60 3.0 NNW 19 30 10 16 999.6 999.6 0.2
19/09:00pm 9.1 3.5 1.5 59 3.2 NW 20 30 11 16 1000.0 1000.0 0.2
19/08:30pm 9.2 3.4 2.3 62 2.9 NNW 22 30 12 16 1000.2 1000.2 0.2
19/08:00pm 9.7 2.6 1.6 57 3.4 WNW 28 37 15 20 1000.0 1000.0 0.2
19/07:41pm 10.2 3.1 1.6 55 3.6 WNW 28 46 15 25 1000.2 1000.2 0.2
19/07:30pm 10.4 4.0 1.2 53 3.8 NW 24 35 13 19 999.7 999.7 0.2
19/07:00pm 10.2 3.3 2.6 59 3.3 NW 28 37 15 20 999.5 999.5 0.2
19/06:30pm 11.0 4.6 5.1 67 2.7 NW 28 44 15 24 999.2 999.2 0.2
19/06:00pm 12.6 5.6 4.1 56 3.9 WNW 30 48 16 26 999.0 999.0 0.2
19/05:30pm 13.3 4.6 4.2 54 4.1 WNW 39 61 21 33 998.1 998.1 0.2
19/05:06pm 13.7 4.2 4.0 52 4.4 WNW 43 61 23 33 997.4 997.4 0.2
19/05:00pm 13.9 3.9 4.2 52 4.5 NW 46 61 25 33 997.4 997.4 0.2
19/04:40pm 14.4 4.9 4.7 52 4.5 NW 44 67 24 36 997.0 997.1 0.2
19/04:30pm 14.4 3.8 5.0 53 4.4 NW 50 65 27 35 996.6 996.7 0.2
19/04:03pm 15.1 7.9 6.1 55 4.3 NW 33 54 18 29 996.8 996.9 0.2
19/04:00pm 15.1 8.0 6.4 56 4.2 NW 33 52 18 28 996.8 996.9 0.2
19/03:43pm 15.6 9.6 7.1 57 4.2 WNW 28 52 15 28 997.6 997.6 0.2
19/03:30pm 15.6 9.3 5.8 52 4.7 WNW 28 43 15 23 997.4 997.4 0.2
19/03:00pm 16.8 9.6 5.1 46 5.6 WNW 32 52 17 28 997.4 997.4 0.2
19/02:30pm 17.3 9.2 5.3 45 5.8 WNW 37 61 20 33 996.7 996.8 0.2
19/02:00pm 17.0 6.6 6.2 49 5.3 NW 50 70 27 38 996.9 997.0 0.2
19/01:30pm 16.8 6.6 6.9 52 4.9 NW 50 69 27 37 997.0 997.1 0.2
19/01:08pm 18.2 8.6 6.4 46 5.8 NW 46 74 25 40 996.7 996.8 0.2
19/01:04pm 18.9 11.4 8.0 49 5.6 NW 37 74 20 40 997.1 997.2 0.2
19/01:01pm 18.3 11.7 7.7 50 5.4 WNW 32 50 17 27 997.1 997.2 0.2
19/01:00pm 18.0 11.6 7.1 49 5.5 WNW 30 41 16 22 997.0 997.1 0.2
19/12:34pm 16.3 9.3 6.2 51 4.9 NW 32 50 17 27 997.8 997.8 0.2
19/12:30pm 16.8 9.3 6.3 50 5.1 NW 35 52 19 28 997.9 997.9 0.2
19/12:00pm 16.1 6.7 7.1 55 4.5 NW 46 63 25 34 998.1 998.1 0.2
19/11:30am 16.4 7.0 7.1 54 4.6 NW 46 65 25 35 998.2 998.2 0.2
19/11:00am 16.5 7.8 5.8 49 5.2 NNW 41 67 22 36 998.0 998.0 0.0
19/10:36am 16.6 7.0 6.1 50 5.1 NW 46 70 25 38 998.3 998.3 0.0
19/10:30am 16.1 6.4 6.0 51 4.9 NW 46 61 25 33 998.2 998.2 0.0

Other formats

Comma delimited format used in spreadsheet applications
http://www.bom.gov.au/fwo/IDT60801/IDT60801.94975.axf

JavaScript Object Notation format (JSON) in row-major order
http://www.bom.gov.au/fwo/IDT60801/IDT60801.94975.json

Data quality

Most of these data are generated automatically and are frequently updated. Quality checks on data are not normally performed. It is possible for incorrect values to appear. Refer to information at About Latest Weather Observations and please check the disclaimer before using these data.